sensor_id;sensor_type;location;lat;lon;timestamp;temperature;humidity
57390;DHT22;43217;52.694;6.214;2022-09-16T00:00:37;13.20;99.90
57390;DHT22;43217;52.694;6.214;2022-09-16T00:03:06;13.30;99.90
57390;DHT22;43217;52.694;6.214;2022-09-16T00:05:32;13.30;99.90
57390;DHT22;43217;52.694;6.214;2022-09-16T00:07:58;13.30;99.90
57390;DHT22;43217;52.694;6.214;2022-09-16T00:10:23;13.30;99.90
57390;DHT22;43217;52.694;6.214;2022-09-16T00:12:49;13.30;99.90
57390;DHT22;43217;52.694;6.214;2022-09-16T00:15:16;13.30;99.90
57390;DHT22;43217;52.694;6.214;2022-09-16T00:17:42;13.30;99.90
57390;DHT22;43217;52.694;6.214;2022-09-16T00:20:08;13.40;99.90
57390;DHT22;43217;52.694;6.214;2022-09-16T00:22:34;13.30;99.90
57390;DHT22;43217;52.694;6.214;2022-09-16T00:25:00;13.30;99.90
57390;DHT22;43217;52.694;6.214;2022-09-16T00:27:25;13.20;99.90
57390;DHT22;43217;52.694;6.214;2022-09-16T00:29:51;13.20;99.90
57390;DHT22;43217;52.694;6.214;2022-09-16T00:32:17;13.20;99.90
57390;DHT22;43217;52.694;6.214;2022-09-16T00:34:42;13.10;99.90
57390;DHT22;43217;52.694;6.214;2022-09-16T00:37:08;13.10;99.90
57390;DHT22;43217;52.694;6.214;2022-09-16T00:39:35;13.10;99.90
57390;DHT22;43217;52.694;6.214;2022-09-16T00:42:02;13.10;99.90
57390;DHT22;43217;52.694;6.214;2022-09-16T00:47:24;13.10;99.90
57390;DHT22;43217;52.694;6.214;2022-09-16T00:49:54;13.10;99.90
57390;DHT22;43217;52.694;6.214;2022-09-16T00:52:21;13.00;99.90
57390;DHT22;43217;52.694;6.214;2022-09-16T00:54:47;13.10;99.90
57390;DHT22;43217;52.694;6.214;2022-09-16T00:57:14;13.00;99.90
57390;DHT22;43217;52.694;6.214;2022-09-16T00:59:46;13.00;99.90
57390;DHT22;43217;52.694;6.214;2022-09-16T01:02:16;13.00;99.90
57390;DHT22;43217;52.694;6.214;2022-09-16T01:04:56;13.00;99.90
57390;DHT22;43217;52.694;6.214;2022-09-16T01:07:37;13.00;99.90
57390;DHT22;43217;52.694;6.214;2022-09-16T01:10:04;13.00;99.90
57390;DHT22;43217;52.694;6.214;2022-09-16T01:12:31;13.00;99.90
57390;DHT22;43217;52.694;6.214;2022-09-16T01:14:58;12.90;99.90
57390;DHT22;43217;52.694;6.214;2022-09-16T01:20:34;12.90;99.90
57390;DHT22;43217;52.694;6.214;2022-09-16T01:23:40;12.80;99.90
57390;DHT22;43217;52.694;6.214;2022-09-16T01:29:11;12.80;99.90
57390;DHT22;43217;52.694;6.214;2022-09-16T01:34:48;12.80;99.90
57390;DHT22;43217;52.694;6.214;2022-09-16T01:37:55;12.80;99.90
57390;DHT22;43217;52.694;6.214;2022-09-16T01:40:38;12.80;99.90
57390;DHT22;43217;52.694;6.214;2022-09-16T01:51:41;12.70;99.90
57390;DHT22;43217;52.694;6.214;2022-09-16T01:54:12;12.70;99.90
57390;DHT22;43217;52.694;6.214;2022-09-16T01:59:47;12.70;99.90
57390;DHT22;43217;52.694;6.214;2022-09-16T02:02:22;12.70;99.90
57390;DHT22;43217;52.694;6.214;2022-09-16T02:04:54;12.70;99.90
57390;DHT22;43217;52.694;6.214;2022-09-16T02:07:24;12.70;99.90
57390;DHT22;43217;52.694;6.214;2022-09-16T02:09:54;12.80;99.90
57390;DHT22;43217;52.694;6.214;2022-09-16T02:12:26;12.80;99.90
57390;DHT22;43217;52.694;6.214;2022-09-16T02:14:56;12.70;99.90
57390;DHT22;43217;52.694;6.214;2022-09-16T02:17:26;12.70;99.90
57390;DHT22;43217;52.694;6.214;2022-09-16T02:20:06;12.70;99.90
57390;DHT22;43217;52.694;6.214;2022-09-16T02:22:40;12.70;99.90
57390;DHT22;43217;52.694;6.214;2022-09-16T02:25:09;12.70;99.90
57390;DHT22;43217;52.694;6.214;2022-09-16T02:27:37;12.70;99.90
57390;DHT22;43217;52.694;6.214;2022-09-16T02:30:09;12.70;99.90
57390;DHT22;43217;52.694;6.214;2022-09-16T02:32:47;12.60;99.90
57390;DHT22;43217;52.694;6.214;2022-09-16T02:35:16;12.60;99.90
57390;DHT22;43217;52.694;6.214;2022-09-16T02:37:54;12.50;99.90
57390;DHT22;43217;52.694;6.214;2022-09-16T02:40:31;12.50;99.90
57390;DHT22;43217;52.694;6.214;2022-09-16T02:42:57;12.40;99.90
57390;DHT22;43217;52.694;6.214;2022-09-16T02:45:36;12.40;99.90
57390;DHT22;43217;52.694;6.214;2022-09-16T02:48:12;12.40;99.90
57390;DHT22;43217;52.694;6.214;2022-09-16T02:50:58;12.40;99.90
57390;DHT22;43217;52.694;6.214;2022-09-16T02:53:42;12.40;99.90
57390;DHT22;43217;52.694;6.214;2022-09-16T02:56:31;12.40;99.90
57390;DHT22;43217;52.694;6.214;2022-09-16T02:58:59;12.40;99.90
57390;DHT22;43217;52.694;6.214;2022-09-16T03:01:29;12.30;99.90
57390;DHT22;43217;52.694;6.214;2022-09-16T03:03:56;12.30;99.90
57390;DHT22;43217;52.694;6.214;2022-09-16T03:06:24;12.30;99.90
57390;DHT22;43217;52.694;6.214;2022-09-16T03:08:51;12.20;99.90
57390;DHT22;43217;52.694;6.214;2022-09-16T03:13:53;12.20;99.90
57390;DHT22;43217;52.694;6.214;2022-09-16T03:16:35;12.10;99.90
57390;DHT22;43217;52.694;6.214;2022-09-16T03:21:50;12.10;99.90
57390;DHT22;43217;52.694;6.214;2022-09-16T03:24:38;12.10;99.90
57390;DHT22;43217;52.694;6.214;2022-09-16T03:27:30;12.10;99.90
57390;DHT22;43217;52.694;6.214;2022-09-16T03:30:03;12.10;99.90
57390;DHT22;43217;52.694;6.214;2022-09-16T03:32:36;12.10;99.90
57390;DHT22;43217;52.694;6.214;2022-09-16T03:35:05;12.10;99.90
57390;DHT22;43217;52.694;6.214;2022-09-16T03:37:33;12.10;99.90
57390;DHT22;43217;52.694;6.214;2022-09-16T03:40:04;12.10;99.90
57390;DHT22;43217;52.694;6.214;2022-09-16T03:42:31;12.10;99.90
57390;DHT22;43217;52.694;6.214;2022-09-16T03:44:57;12.10;99.90
57390;DHT22;43217;52.694;6.214;2022-09-16T03:47:23;12.10;99.90
57390;DHT22;43217;52.694;6.214;2022-09-16T03:49:49;12.00;99.90
57390;DHT22;43217;52.694;6.214;2022-09-16T03:52:15;11.90;99.90
57390;DHT22;43217;52.694;6.214;2022-09-16T03:54:43;11.90;99.90
57390;DHT22;43217;52.694;6.214;2022-09-16T03:57:09;12.00;99.90
57390;DHT22;43217;52.694;6.214;2022-09-16T03:59:34;12.00;99.90
57390;DHT22;43217;52.694;6.214;2022-09-16T04:02:00;12.10;99.90
57390;DHT22;43217;52.694;6.214;2022-09-16T04:04:26;12.10;99.90
57390;DHT22;43217;52.694;6.214;2022-09-16T04:06:52;12.10;99.90
57390;DHT22;43217;52.694;6.214;2022-09-16T04:09:17;12.10;99.90
57390;DHT22;43217;52.694;6.214;2022-09-16T04:11:43;12.10;99.90
57390;DHT22;43217;52.694;6.214;2022-09-16T04:14:09;12.10;99.90
57390;DHT22;43217;52.694;6.214;2022-09-16T04:16:35;12.10;99.90
57390;DHT22;43217;52.694;6.214;2022-09-16T04:19:00;12.20;99.90
57390;DHT22;43217;52.694;6.214;2022-09-16T04:21:27;12.10;99.90
57390;DHT22;43217;52.694;6.214;2022-09-16T04:23:54;12.20;99.90
57390;DHT22;43217;52.694;6.214;2022-09-16T04:26:20;12.10;99.90
57390;DHT22;43217;52.694;6.214;2022-09-16T04:28:47;12.10;99.90
57390;DHT22;43217;52.694;6.214;2022-09-16T04:31:16;12.10;99.90
57390;DHT22;43217;52.694;6.214;2022-09-16T04:33:42;12.10;99.90
57390;DHT22;43217;52.694;6.214;2022-09-16T04:36:15;12.10;99.90
57390;DHT22;43217;52.694;6.214;2022-09-16T04:38:42;12.10;99.90
57390;DHT22;43217;52.694;6.214;2022-09-16T04:41:20;12.10;99.90
57390;DHT22;43217;52.694;6.214;2022-09-16T04:43:49;12.10;99.90
57390;DHT22;43217;52.694;6.214;2022-09-16T04:46:17;12.10;99.90
57390;DHT22;43217;52.694;6.214;2022-09-16T04:48:45;12.00;99.90
57390;DHT22;43217;52.694;6.214;2022-09-16T04:51:11;12.00;99.90
57390;DHT22;43217;52.694;6.214;2022-09-16T04:53:38;12.00;99.90
57390;DHT22;43217;52.694;6.214;2022-09-16T04:58:35;12.00;99.90
57390;DHT22;43217;52.694;6.214;2022-09-16T05:01:09;12.00;99.90
57390;DHT22;43217;52.694;6.214;2022-09-16T05:03:38;12.10;99.90
57390;DHT22;43217;52.694;6.214;2022-09-16T05:06:09;12.10;99.90
57390;DHT22;43217;52.694;6.214;2022-09-16T05:08:35;12.10;99.90
57390;DHT22;43217;52.694;6.214;2022-09-16T05:11:12;12.10;99.90
57390;DHT22;43217;52.694;6.214;2022-09-16T05:13:38;12.10;99.90
57390;DHT22;43217;52.694;6.214;2022-09-16T05:16:12;12.10;99.90
57390;DHT22;43217;52.694;6.214;2022-09-16T05:18:39;12.10;99.90
57390;DHT22;43217;52.694;6.214;2022-09-16T05:21:07;12.10;99.90
57390;DHT22;43217;52.694;6.214;2022-09-16T05:23:33;12.10;99.90
57390;DHT22;43217;52.694;6.214;2022-09-16T05:26:05;12.10;99.90
57390;DHT22;43217;52.694;6.214;2022-09-16T05:28:31;12.10;99.90
57390;DHT22;43217;52.694;6.214;2022-09-16T05:33:35;12.10;99.90
57390;DHT22;43217;52.694;6.214;2022-09-16T05:36:10;12.10;99.90
57390;DHT22;43217;52.694;6.214;2022-09-16T05:38:36;12.10;99.90
57390;DHT22;43217;52.694;6.214;2022-09-16T05:41:03;12.00;99.90
57390;DHT22;43217;52.694;6.214;2022-09-16T05:43:29;12.00;99.90
57390;DHT22;43217;52.694;6.214;2022-09-16T05:45:55;12.00;99.90
57390;DHT22;43217;52.694;6.214;2022-09-16T05:48:21;12.00;99.90
57390;DHT22;43217;52.694;6.214;2022-09-16T05:50:52;12.00;99.90
57390;DHT22;43217;52.694;6.214;2022-09-16T05:53:18;12.20;99.90
57390;DHT22;43217;52.694;6.214;2022-09-16T05:56:02;12.60;99.90
57390;DHT22;43217;52.694;6.214;2022-09-16T05:58:29;13.30;99.90
57390;DHT22;43217;52.694;6.214;2022-09-16T06:03:32;14.50;99.90
57390;DHT22;43217;52.694;6.214;2022-09-16T06:06:03;15.10;99.90
57390;DHT22;43217;52.694;6.214;2022-09-16T06:08:30;15.60;99.90
57390;DHT22;43217;52.694;6.214;2022-09-16T06:10:59;16.10;99.90
57390;DHT22;43217;52.694;6.214;2022-09-16T06:13:25;16.60;99.90
57390;DHT22;43217;52.694;6.214;2022-09-16T06:15:52;17.00;99.90
57390;DHT22;43217;52.694;6.214;2022-09-16T06:18:24;17.40;99.90
57390;DHT22;43217;52.694;6.214;2022-09-16T06:20:50;17.80;99.90
57390;DHT22;43217;52.694;6.214;2022-09-16T06:23:16;18.10;99.90
57390;DHT22;43217;52.694;6.214;2022-09-16T06:25:42;18.30;99.90
57390;DHT22;43217;52.694;6.214;2022-09-16T06:28:08;18.60;99.90
57390;DHT22;43217;52.694;6.214;2022-09-16T06:30:36;18.70;99.90
57390;DHT22;43217;52.694;6.214;2022-09-16T06:33:02;18.70;99.90
57390;DHT22;43217;52.694;6.214;2022-09-16T06:35:28;18.40;99.90
57390;DHT22;43217;52.694;6.214;2022-09-16T06:37:54;18.50;99.90
57390;DHT22;43217;52.694;6.214;2022-09-16T06:40:19;18.60;99.90
57390;DHT22;43217;52.694;6.214;2022-09-16T06:42:45;18.20;99.90
57390;DHT22;43217;52.694;6.214;2022-09-16T06:45:10;17.60;99.90
57390;DHT22;43217;52.694;6.214;2022-09-16T06:47:36;17.20;99.90
57390;DHT22;43217;52.694;6.214;2022-09-16T06:50:03;17.30;99.90
57390;DHT22;43217;52.694;6.214;2022-09-16T06:52:29;18.10;99.90
57390;DHT22;43217;52.694;6.214;2022-09-16T06:54:55;19.00;99.90
57390;DHT22;43217;52.694;6.214;2022-09-16T06:57:21;19.10;99.90
57390;DHT22;43217;52.694;6.214;2022-09-16T06:59:51;18.80;99.90
57390;DHT22;43217;52.694;6.214;2022-09-16T07:02:18;18.20;99.90
57390;DHT22;43217;52.694;6.214;2022-09-16T07:04:44;17.60;99.90
57390;DHT22;43217;52.694;6.214;2022-09-16T07:07:13;17.50;99.90
57390;DHT22;43217;52.694;6.214;2022-09-16T07:09:39;18.10;99.90
57390;DHT22;43217;52.694;6.214;2022-09-16T07:12:06;19.00;99.90
57390;DHT22;43217;52.694;6.214;2022-09-16T07:14:32;19.60;99.90
57390;DHT22;43217;52.694;6.214;2022-09-16T07:16:58;19.40;99.90
57390;DHT22;43217;52.694;6.214;2022-09-16T07:19:25;19.30;99.90
57390;DHT22;43217;52.694;6.214;2022-09-16T07:21:51;20.00;99.90
57390;DHT22;43217;52.694;6.214;2022-09-16T07:24:17;20.80;99.90
57390;DHT22;43217;52.694;6.214;2022-09-16T07:26:43;21.50;99.90
57390;DHT22;43217;52.694;6.214;2022-09-16T07:29:12;21.90;99.90
57390;DHT22;43217;52.694;6.214;2022-09-16T07:31:38;22.30;99.90
57390;DHT22;43217;52.694;6.214;2022-09-16T07:34:06;22.90;99.90
57390;DHT22;43217;52.694;6.214;2022-09-16T07:36:34;23.40;96.40
57390;DHT22;43217;52.694;6.214;2022-09-16T07:39:01;23.60;91.30
57390;DHT22;43217;52.694;6.214;2022-09-16T07:41:29;23.60;88.00
57390;DHT22;43217;52.694;6.214;2022-09-16T07:43:58;23.80;85.40
57390;DHT22;43217;52.694;6.214;2022-09-16T07:46:26;24.00;81.50
57390;DHT22;43217;52.694;6.214;2022-09-16T07:48:52;24.20;80.10
57390;DHT22;43217;52.694;6.214;2022-09-16T07:51:20;24.30;77.80
57390;DHT22;43217;52.694;6.214;2022-09-16T07:53:47;24.50;78.50
57390;DHT22;43217;52.694;6.214;2022-09-16T07:56:19;24.50;74.30
57390;DHT22;43217;52.694;6.214;2022-09-16T07:58:46;24.50;70.40
57390;DHT22;43217;52.694;6.214;2022-09-16T08:01:13;24.20;75.80
57390;DHT22;43217;52.694;6.214;2022-09-16T08:03:40;23.90;76.80
57390;DHT22;43217;52.694;6.214;2022-09-16T08:06:09;24.10;76.30
57390;DHT22;43217;52.694;6.214;2022-09-16T08:08:35;24.30;74.80
57390;DHT22;43217;52.694;6.214;2022-09-16T08:11:01;24.10;74.50
57390;DHT22;43217;52.694;6.214;2022-09-16T08:13:28;23.50;77.60
57390;DHT22;43217;52.694;6.214;2022-09-16T08:15:58;22.40;76.40
57390;DHT22;43217;52.694;6.214;2022-09-16T08:18:23;21.40;81.80
57390;DHT22;43217;52.694;6.214;2022-09-16T08:20:49;20.80;90.90
57390;DHT22;43217;52.694;6.214;2022-09-16T08:23:17;20.60;93.10
57390;DHT22;43217;52.694;6.214;2022-09-16T08:25:43;21.40;92.90
57390;DHT22;43217;52.694;6.214;2022-09-16T08:28:16;22.30;90.00
57390;DHT22;43217;52.694;6.214;2022-09-16T08:30:42;23.00;85.20
57390;DHT22;43217;52.694;6.214;2022-09-16T08:33:09;23.70;81.10
57390;DHT22;43217;52.694;6.214;2022-09-16T08:35:35;24.30;76.80
57390;DHT22;43217;52.694;6.214;2022-09-16T08:38:01;24.80;74.80
57390;DHT22;43217;52.694;6.214;2022-09-16T08:40:30;25.20;71.60
57390;DHT22;43217;52.694;6.214;2022-09-16T08:43:19;25.20;67.10
57390;DHT22;43217;52.694;6.214;2022-09-16T08:45:57;25.60;63.00
57390;DHT22;43217;52.694;6.214;2022-09-16T08:51:17;25.20;59.90
57390;DHT22;43217;52.694;6.214;2022-09-16T08:53:54;25.20;64.40
57390;DHT22;43217;52.694;6.214;2022-09-16T08:56:23;25.40;63.00
57390;DHT22;43217;52.694;6.214;2022-09-16T08:58:54;25.60;63.90
57390;DHT22;43217;52.694;6.214;2022-09-16T09:01:54;25.60;63.10
57390;DHT22;43217;52.694;6.214;2022-09-16T09:04:21;25.70;62.10
57390;DHT22;43217;52.694;6.214;2022-09-16T09:12:41;23.50;63.10
57390;DHT22;43217;52.694;6.214;2022-09-16T09:29:19;20.30;70.40
57390;DHT22;43217;52.694;6.214;2022-09-16T09:32:02;20.00;71.10
57390;DHT22;43217;52.694;6.214;2022-09-16T09:37:51;19.70;73.50
57390;DHT22;43217;52.694;6.214;2022-09-16T09:40:34;19.50;71.50
57390;DHT22;43217;52.694;6.214;2022-09-16T09:43:31;19.40;71.30
57390;DHT22;43217;52.694;6.214;2022-09-16T09:46:05;19.40;72.50
57390;DHT22;43217;52.694;6.214;2022-09-16T09:48:34;19.40;71.90
57390;DHT22;43217;52.694;6.214;2022-09-16T09:51:09;19.40;71.60
57390;DHT22;43217;52.694;6.214;2022-09-16T09:53:41;19.40;73.20
57390;DHT22;43217;52.694;6.214;2022-09-16T09:56:17;19.20;73.10
57390;DHT22;43217;52.694;6.214;2022-09-16T09:58:50;19.00;74.70
57390;DHT22;43217;52.694;6.214;2022-09-16T10:01:18;18.90;76.70
57390;DHT22;43217;52.694;6.214;2022-09-16T10:03:44;19.00;78.50
57390;DHT22;43217;52.694;6.214;2022-09-16T10:06:10;19.00;81.10
57390;DHT22;43217;52.694;6.214;2022-09-16T10:08:48;19.00;80.70
57390;DHT22;43217;52.694;6.214;2022-09-16T10:11:18;19.00;77.40
57390;DHT22;43217;52.694;6.214;2022-09-16T10:13:53;19.10;76.90
57390;DHT22;43217;52.694;6.214;2022-09-16T10:16:21;19.20;73.50
57390;DHT22;43217;52.694;6.214;2022-09-16T10:18:55;19.30;76.00
57390;DHT22;43217;52.694;6.214;2022-09-16T10:21:22;19.40;73.30
57390;DHT22;43217;52.694;6.214;2022-09-16T10:23:55;19.60;73.00
57390;DHT22;43217;52.694;6.214;2022-09-16T10:26:27;19.60;78.20
57390;DHT22;43217;52.694;6.214;2022-09-16T10:29:01;19.30;88.80
57390;DHT22;43217;52.694;6.214;2022-09-16T10:31:36;19.00;93.70
57390;DHT22;43217;52.694;6.214;2022-09-16T10:34:11;18.70;94.20
57390;DHT22;43217;52.694;6.214;2022-09-16T10:36:37;18.40;98.30
57390;DHT22;43217;52.694;6.214;2022-09-16T10:39:03;18.40;99.80
57390;DHT22;43217;52.694;6.214;2022-09-16T10:41:39;18.20;99.90
57390;DHT22;43217;52.694;6.214;2022-09-16T10:44:16;18.30;99.70
57390;DHT22;43217;52.694;6.214;2022-09-16T10:46:59;18.30;98.60
57390;DHT22;43217;52.694;6.214;2022-09-16T10:49:58;18.40;97.70
57390;DHT22;43217;52.694;6.214;2022-09-16T10:52:31;18.40;96.00
57390;DHT22;43217;52.694;6.214;2022-09-16T10:55:11;18.50;94.60
57390;DHT22;43217;52.694;6.214;2022-09-16T10:57:45;18.70;95.70
57390;DHT22;43217;52.694;6.214;2022-09-16T11:00:18;18.70;93.50
57390;DHT22;43217;52.694;6.214;2022-09-16T11:08:38;18.90;93.50
57390;DHT22;43217;52.694;6.214;2022-09-16T11:11:58;19.30;96.20
57390;DHT22;43217;52.694;6.214;2022-09-16T11:26:37;18.20;99.90
57390;DHT22;43217;52.694;6.214;2022-09-16T11:45:19;18.60;96.90
57390;DHT22;43217;52.694;6.214;2022-09-16T11:48:13;18.60;94.40
57390;DHT22;43217;52.694;6.214;2022-09-16T11:53:35;18.90;90.90
57390;DHT22;43217;52.694;6.214;2022-09-16T11:56:12;18.90;94.20
57390;DHT22;43217;52.694;6.214;2022-09-16T11:58:53;18.90;93.30
57390;DHT22;43217;52.694;6.214;2022-09-16T12:07:12;18.70;90.70
57390;DHT22;43217;52.694;6.214;2022-09-16T12:09:47;18.70;90.60
57390;DHT22;43217;52.694;6.214;2022-09-16T12:12:21;18.70;89.20
57390;DHT22;43217;52.694;6.214;2022-09-16T12:14:56;18.70;88.80
57390;DHT22;43217;52.694;6.214;2022-09-16T12:17:27;18.70;82.90
57390;DHT22;43217;52.694;6.214;2022-09-16T12:20:08;18.70;82.00
57390;DHT22;43217;52.694;6.214;2022-09-16T12:22:51;18.60;92.80
57390;DHT22;43217;52.694;6.214;2022-09-16T12:25:36;18.40;99.90
57390;DHT22;43217;52.694;6.214;2022-09-16T12:28:12;18.10;99.90
57390;DHT22;43217;52.694;6.214;2022-09-16T12:30:43;17.90;99.90
57390;DHT22;43217;52.694;6.214;2022-09-16T12:38:28;17.80;99.90
57390;DHT22;43217;52.694;6.214;2022-09-16T12:43:51;17.40;99.90
57390;DHT22;43217;52.694;6.214;2022-09-16T12:58:18;17.60;99.90
57390;DHT22;43217;52.694;6.214;2022-09-16T13:04:01;17.50;99.90
57390;DHT22;43217;52.694;6.214;2022-09-16T13:06:36;17.50;99.40
57390;DHT22;43217;52.694;6.214;2022-09-16T13:09:27;17.60;98.00
57390;DHT22;43217;52.694;6.214;2022-09-16T13:11:56;17.60;96.00
57390;DHT22;43217;52.694;6.214;2022-09-16T13:14:43;17.70;96.00
57390;DHT22;43217;52.694;6.214;2022-09-16T13:17:11;17.80;96.90
57390;DHT22;43217;52.694;6.214;2022-09-16T13:19:49;17.90;95.00
57390;DHT22;43217;52.694;6.214;2022-09-16T13:22:28;17.80;93.90
57390;DHT22;43217;52.694;6.214;2022-09-16T13:25:13;17.70;92.60
57390;DHT22;43217;52.694;6.214;2022-09-16T13:30:32;17.40;92.70
57390;DHT22;43217;52.694;6.214;2022-09-16T13:33:22;17.30;93.40
57390;DHT22;43217;52.694;6.214;2022-09-16T13:36:00;17.40;93.20
57390;DHT22;43217;52.694;6.214;2022-09-16T13:38:39;17.50;92.10
57390;DHT22;43217;52.694;6.214;2022-09-16T13:41:05;17.40;91.00
57390;DHT22;43217;52.694;6.214;2022-09-16T13:46:13;17.50;92.20
57390;DHT22;43217;52.694;6.214;2022-09-16T13:51:28;17.60;92.20
57390;DHT22;43217;52.694;6.214;2022-09-16T13:53:55;17.80;92.50
57390;DHT22;43217;52.694;6.214;2022-09-16T14:02:24;18.10;89.40
57390;DHT22;43217;52.694;6.214;2022-09-16T14:04:55;18.20;89.60
57390;DHT22;43217;52.694;6.214;2022-09-16T14:10:22;18.00;85.30
57390;DHT22;43217;52.694;6.214;2022-09-16T14:13:08;18.00;86.70
57390;DHT22;43217;52.694;6.214;2022-09-16T14:15:55;18.00;87.40
57390;DHT22;43217;52.694;6.214;2022-09-16T14:18:28;18.00;89.90
57390;DHT22;43217;52.694;6.214;2022-09-16T14:21:00;18.00;89.30
57390;DHT22;43217;52.694;6.214;2022-09-16T14:23:26;18.00;90.00
57390;DHT22;43217;52.694;6.214;2022-09-16T14:25:52;17.90;90.30
57390;DHT22;43217;52.694;6.214;2022-09-16T14:28:25;17.80;89.60
57390;DHT22;43217;52.694;6.214;2022-09-16T14:33:38;17.70;87.70
57390;DHT22;43217;52.694;6.214;2022-09-16T14:36:13;17.60;87.30
57390;DHT22;43217;52.694;6.214;2022-09-16T14:39:03;17.40;88.40
57390;DHT22;43217;52.694;6.214;2022-09-16T14:44:16;17.50;90.70
57390;DHT22;43217;52.694;6.214;2022-09-16T14:49:16;17.50;86.80
57390;DHT22;43217;52.694;6.214;2022-09-16T14:51:48;17.50;86.80
57390;DHT22;43217;52.694;6.214;2022-09-16T14:54:22;17.40;80.90
57390;DHT22;43217;52.694;6.214;2022-09-16T14:57:04;17.40;79.20
57390;DHT22;43217;52.694;6.214;2022-09-16T14:59:32;17.40;80.90
57390;DHT22;43217;52.694;6.214;2022-09-16T15:04:55;17.40;83.60
57390;DHT22;43217;52.694;6.214;2022-09-16T15:07:27;17.30;85.20
57390;DHT22;43217;52.694;6.214;2022-09-16T15:10:06;17.30;89.10
57390;DHT22;43217;52.694;6.214;2022-09-16T15:12:36;17.40;91.10
57390;DHT22;43217;52.694;6.214;2022-09-16T15:15:13;17.30;91.90
57390;DHT22;43217;52.694;6.214;2022-09-16T15:17:40;17.20;92.00
57390;DHT22;43217;52.694;6.214;2022-09-16T15:20:18;17.20;92.40
57390;DHT22;43217;52.694;6.214;2022-09-16T15:22:45;17.20;91.50
57390;DHT22;43217;52.694;6.214;2022-09-16T15:25:25;17.20;92.50
57390;DHT22;43217;52.694;6.214;2022-09-16T15:28:06;17.20;92.80
57390;DHT22;43217;52.694;6.214;2022-09-16T15:30:33;17.10;94.30
57390;DHT22;43217;52.694;6.214;2022-09-16T15:32:58;17.10;93.90
57390;DHT22;43217;52.694;6.214;2022-09-16T15:35:27;17.10;94.60
57390;DHT22;43217;52.694;6.214;2022-09-16T15:37:55;17.10;94.90
57390;DHT22;43217;52.694;6.214;2022-09-16T15:40:29;17.10;95.50
57390;DHT22;43217;52.694;6.214;2022-09-16T15:43:15;17.00;95.90
57390;DHT22;43217;52.694;6.214;2022-09-16T15:45:45;17.00;93.40
57390;DHT22;43217;52.694;6.214;2022-09-16T15:48:22;16.90;92.90
57390;DHT22;43217;52.694;6.214;2022-09-16T15:50:51;16.70;99.90
57390;DHT22;43217;52.694;6.214;2022-09-16T15:58:47;15.80;99.90
57390;DHT22;43217;52.694;6.214;2022-09-16T16:01:46;15.40;99.90
57390;DHT22;43217;52.694;6.214;2022-09-16T16:04:23;15.20;99.90
57390;DHT22;43217;52.694;6.214;2022-09-16T16:09:37;14.70;99.90
57390;DHT22;43217;52.694;6.214;2022-09-16T16:12:09;14.60;99.90
57390;DHT22;43217;52.694;6.214;2022-09-16T16:14:36;14.40;99.90
57390;DHT22;43217;52.694;6.214;2022-09-16T16:19:33;14.40;99.90
57390;DHT22;43217;52.694;6.214;2022-09-16T16:21:59;14.40;99.90
57390;DHT22;43217;52.694;6.214;2022-09-16T16:24:26;14.40;99.90
57390;DHT22;43217;52.694;6.214;2022-09-16T16:26:52;14.40;99.90
57390;DHT22;43217;52.694;6.214;2022-09-16T16:29:17;14.30;99.90
57390;DHT22;43217;52.694;6.214;2022-09-16T16:32:11;14.30;99.90
57390;DHT22;43217;52.694;6.214;2022-09-16T16:34:45;14.30;99.90
57390;DHT22;43217;52.694;6.214;2022-09-16T16:37:13;14.30;99.90
57390;DHT22;43217;52.694;6.214;2022-09-16T16:39:40;14.30;99.90
57390;DHT22;43217;52.694;6.214;2022-09-16T16:42:05;14.20;99.90
57390;DHT22;43217;52.694;6.214;2022-09-16T16:44:33;14.20;99.90
57390;DHT22;43217;52.694;6.214;2022-09-16T16:46:59;14.20;99.90
57390;DHT22;43217;52.694;6.214;2022-09-16T16:49:25;14.20;99.90
57390;DHT22;43217;52.694;6.214;2022-09-16T16:51:51;14.20;99.90
57390;DHT22;43217;52.694;6.214;2022-09-16T16:54:20;14.20;99.90
57390;DHT22;43217;52.694;6.214;2022-09-16T16:56:46;14.20;99.90
57390;DHT22;43217;52.694;6.214;2022-09-16T16:59:13;14.20;99.90
57390;DHT22;43217;52.694;6.214;2022-09-16T17:01:39;14.10;99.90
57390;DHT22;43217;52.694;6.214;2022-09-16T17:04:05;14.00;99.90
57390;DHT22;43217;52.694;6.214;2022-09-16T17:06:43;14.00;99.90
57390;DHT22;43217;52.694;6.214;2022-09-16T17:09:10;14.00;99.90
57390;DHT22;43217;52.694;6.214;2022-09-16T17:11:36;14.00;99.90
57390;DHT22;43217;52.694;6.214;2022-09-16T17:14:05;14.00;99.90
57390;DHT22;43217;52.694;6.214;2022-09-16T17:16:32;13.90;99.90
57390;DHT22;43217;52.694;6.214;2022-09-16T17:18:59;13.80;99.90
57390;DHT22;43217;52.694;6.214;2022-09-16T17:21:30;13.80;99.90
57390;DHT22;43217;52.694;6.214;2022-09-16T17:23:56;13.70;99.90
57390;DHT22;43217;52.694;6.214;2022-09-16T17:26:22;13.80;99.90
57390;DHT22;43217;52.694;6.214;2022-09-16T17:28:50;13.80;99.90
57390;DHT22;43217;52.694;6.214;2022-09-16T17:31:24;13.80;99.90
57390;DHT22;43217;52.694;6.214;2022-09-16T17:33:55;13.70;99.90
57390;DHT22;43217;52.694;6.214;2022-09-16T17:36:21;13.70;99.90
57390;DHT22;43217;52.694;6.214;2022-09-16T17:39:10;13.70;99.90
57390;DHT22;43217;52.694;6.214;2022-09-16T17:41:35;13.60;99.90
57390;DHT22;43217;52.694;6.214;2022-09-16T17:44:07;13.60;99.90
57390;DHT22;43217;52.694;6.214;2022-09-16T17:46:33;13.60;99.90
57390;DHT22;43217;52.694;6.214;2022-09-16T17:49:00;13.60;99.90
57390;DHT22;43217;52.694;6.214;2022-09-16T17:51:26;13.60;99.90
57390;DHT22;43217;52.694;6.214;2022-09-16T17:53:52;13.50;99.90
57390;DHT22;43217;52.694;6.214;2022-09-16T17:56:18;13.60;99.90
57390;DHT22;43217;52.694;6.214;2022-09-16T17:58:45;13.60;99.90
57390;DHT22;43217;52.694;6.214;2022-09-16T18:01:17;13.60;99.90
57390;DHT22;43217;52.694;6.214;2022-09-16T18:03:45;13.60;99.90
57390;DHT22;43217;52.694;6.214;2022-09-16T18:06:32;13.60;99.90
57390;DHT22;43217;52.694;6.214;2022-09-16T18:09:01;13.60;99.90
57390;DHT22;43217;52.694;6.214;2022-09-16T18:11:28;13.50;99.90
57390;DHT22;43217;52.694;6.214;2022-09-16T18:13:56;13.50;99.90
57390;DHT22;43217;52.694;6.214;2022-09-16T18:16:22;13.50;99.90
57390;DHT22;43217;52.694;6.214;2022-09-16T18:18:53;13.50;99.90
57390;DHT22;43217;52.694;6.214;2022-09-16T18:21:20;13.50;99.90
57390;DHT22;43217;52.694;6.214;2022-09-16T18:23:47;13.50;99.90
57390;DHT22;43217;52.694;6.214;2022-09-16T18:26:16;13.50;99.90
57390;DHT22;43217;52.694;6.214;2022-09-16T18:28:45;13.40;99.90
57390;DHT22;43217;52.694;6.214;2022-09-16T18:31:17;13.50;99.90
57390;DHT22;43217;52.694;6.214;2022-09-16T18:33:43;13.40;99.90
57390;DHT22;43217;52.694;6.214;2022-09-16T18:36:11;13.40;99.90
57390;DHT22;43217;52.694;6.214;2022-09-16T18:38:38;13.40;99.90
57390;DHT22;43217;52.694;6.214;2022-09-16T18:41:10;13.40;99.90